Weather search by city/station or by Location Indicator (LI)

Please do one of the following:
a) Search the weather station by station, city or country name and click Search button
b) Enter the four-character Location Indicator (i.e. EFHK = Helsinki) and click Submit button

a) Search the station:   

b) Location Indicator:  

The ICAO Location Indicator code is explained here.

METAR = EFHK 171620Z 22011KT 180V240 3000 SHRA FEW008 BKN012 FEW030CB 19/19 Q1012 BECMG 9999 NSW BKN009

STATIONEFHK
NAMEHelsinki/Vantaa Arpt, UU, FI
OBSERVED17.07.2024 19:20 (17.07.2024 16:20 UTC), 22 min ago
TEMPERATURE19.0°C ( 66°F)
WINDCHILL18.7 °C (66 °F)
WINDSW at 5.7 m/s (20.52 km/h)
HUMIDITY100%
PRESSURE1011.9 hPa
CONDITIONSrain showers
METAREFHK 171620Z 22011KT 180V240 3000 SHRA FEW008 BKN012 FEW030CB 19/19 Q1012 BECMG 9999 NSW BKN009
LOCATIONMap

Click here to select stations based on continents and countries.